Time;durP1;ratioP1;P1;durP2;ratioP2;P2;SDS_P1;SDS_P2;PMS_P1;PMS_P2;Temp;Humidity;BMP_temperature;BMP_pressure;BME280_temperature;BME280_humidity;BME280_pressure;Samples;Min_cycle;Max_cycle;Signal;HPM_P1;HPM_P2
2022/11/28 00:00:41;;;;;;;61.53;22.60;;;;;;;2.23;nan;99269.41;5006557;28;20456;-62
2022/11/28 00:03:06;;;;;;;96.33;22.47;;;;;;;1.87;nan;99248.28;5006569;28;20056;-62
2022/11/28 00:05:34;;;;;;;76.67;23.40;;;;;;;1.90;nan;99266.06;5007167;28;20438;-61
2022/11/28 00:08:00;;;;;;;85.87;22.07;;;;;;;1.78;nan;99264.09;5009922;28;20060;-61
2022/11/28 00:10:26;;;;;;;54.07;20.87;;;;;;;1.75;nan;99261.44;5005881;28;20046;-62
2022/11/28 00:12:51;;;;;;;94.90;23.13;;;;;;;1.63;nan;99238.41;5006824;28;20044;-63
2022/11/28 00:15:17;;;;;;;85.37;21.20;;;;;;;1.72;nan;99252.13;5008855;28;20120;-62
2022/11/28 00:17:43;;;;;;;140.87;23.37;;;;;;;1.49;nan;99248.13;5005419;28;20081;-62
2022/11/28 00:20:08;;;;;;;71.87;21.70;;;;;;;1.30;nan;99235.84;4999433;28;20041;-62
2022/11/28 00:22:34;;;;;;;57.60;21.03;;;;;;;1.32;nan;99237.56;5003633;28;20077;-63
2022/11/28 00:24:59;;;;;;;115.30;25.87;;;;;;;1.18;nan;99241.41;5007554;28;20050;-61
2022/11/28 00:27:25;;;;;;;70.47;22.57;;;;;;;1.12;nan;99221.03;5006963;28;20038;-61
2022/11/28 00:29:50;;;;;;;78.47;21.10;;;;;;;1.26;nan;99223.94;5021480;28;20064;-63
2022/11/28 00:32:16;;;;;;;66.10;21.70;;;;;;;1.28;nan;99223.16;5005484;28;20125;-61
2022/11/28 00:34:41;;;;;;;57.63;23.17;;;;;;;1.22;nan;99223.00;5007087;28;20048;-62
2022/11/28 00:37:07;;;;;;;85.17;24.87;;;;;;;1.15;nan;99210.16;5007125;28;20052;-58
2022/11/28 00:39:33;;;;;;;50.60;23.77;;;;;;;1.20;nan;99204.41;5000277;28;20117;-59
2022/11/28 00:41:59;;;;;;;83.20;26.40;;;;;;;1.15;nan;99205.97;5006041;28;20026;-60
2022/11/28 00:44:24;;;;;;;86.37;28.63;;;;;;;1.19;nan;99219.56;5007734;28;20046;-60
2022/11/28 00:46:51;;;;;;;97.63;33.83;;;;;;;1.19;nan;99209.44;5010626;28;20034;-59
2022/11/28 00:49:16;;;;;;;127.97;46.77;;;;;;;1.25;nan;99218.03;5010840;28;20485;-61
2022/11/28 00:51:42;;;;;;;76.17;32.00;;;;;;;1.32;nan;99208.94;5010898;28;20061;-61
2022/11/28 00:54:09;;;;;;;100.93;32.97;;;;;;;1.21;nan;99190.13;5009780;28;20038;-61
2022/11/28 00:56:37;;;;;;;77.27;28.43;;;;;;;1.35;nan;99204.00;4965933;28;1315986;-62
2022/11/28 00:59:03;;;;;;;53.63;24.57;;;;;;;1.33;nan;99206.47;5011487;28;20073;-62
2022/11/28 01:01:32;;;;;;;58.10;31.27;;;;;;;1.34;nan;99187.97;5011492;28;20490;-62
2022/11/28 01:04:00;;;;;;;43.77;24.93;;;;;;;1.49;nan;99196.75;5011045;28;20034;-63
2022/11/28 01:06:39;;;;;;;38.30;21.40;;;;;;;1.53;nan;99189.28;5011419;28;20550;-61
2022/11/28 01:09:11;;;;;;;43.77;20.30;;;;;;;1.59;nan;99181.88;5010413;28;20088;-62
2022/11/28 01:11:41;;;;;;;39.73;20.43;;;;;;;1.66;nan;99178.69;5010617;28;20050;-62
2022/11/28 01:14:08;;;;;;;33.03;19.63;;;;;;;1.69;nan;99163.63;5013096;28;20093;-62
2022/11/28 01:16:34;;;;;;;31.00;17.57;;;;;;;1.72;nan;99166.22;5012712;28;20030;-61
2022/11/28 01:18:59;;;;;;;34.10;18.20;;;;;;;1.59;nan;99166.72;5010991;28;20891;-61
2022/11/28 01:21:26;;;;;;;29.33;18.10;;;;;;;1.57;nan;99148.13;5011313;28;20060;-61
2022/11/28 01:23:51;;;;;;;28.23;16.43;;;;;;;1.58;nan;99159.94;5009992;28;20119;-62
2022/11/28 01:26:20;;;;;;;31.70;17.77;;;;;;;1.45;nan;99141.91;5006755;28;20064;-62
2022/11/28 01:28:45;;;;;;;28.50;16.47;;;;;;;1.36;nan;99135.81;5009172;28;20050;-63
2022/11/28 01:31:14;;;;;;;29.63;17.77;;;;;;;1.46;nan;99121.75;5013400;28;20054;-60
2022/11/28 01:33:40;;;;;;;29.23;16.23;;;;;;;1.61;nan;99136.44;5004328;28;20607;-61
2022/11/28 01:36:06;;;;;;;34.83;17.47;;;;;;;1.56;nan;99128.75;5009344;28;20141;-61
2022/11/28 01:38:33;;;;;;;28.13;15.33;;;;;;;1.68;nan;99126.50;5009942;28;20042;-60
2022/11/28 01:40:59;;;;;;;31.70;16.30;;;;;;;1.35;nan;99102.97;5009660;28;20397;-61
2022/11/28 01:43:25;;;;;;;27.83;15.20;;;;;;;1.36;nan;99097.94;5010240;28;20042;-61
2022/11/28 01:45:51;;;;;;;27.07;16.33;;;;;;;1.31;nan;99097.00;5010400;28;20658;-60
2022/11/28 01:48:22;;;;;;;27.37;16.03;;;;;;;1.38;nan;99096.31;5011230;28;20044;-61
2022/11/28 01:50:52;;;;;;;30.77;16.13;;;;;;;1.36;nan;99075.19;5010841;28;20250;-61
2022/11/28 01:53:17;;;;;;;28.70;16.07;;;;;;;1.50;nan;99088.16;5011579;28;20048;-62
2022/11/28 01:55:58;;;;;;;30.23;15.70;;;;;;;1.53;nan;99077.31;5009597;28;20060;-60
2022/11/28 01:58:24;;;;;;;29.90;15.80;;;;;;;1.62;nan;99075.81;5008248;28;20488;-63
2022/11/28 02:00:51;;;;;;;26.33;16.97;;;;;;;1.64;nan;99066.63;5010262;28;20145;-61
2022/11/28 02:03:32;;;;;;;29.83;16.63;;;;;;;1.53;nan;99062.16;5010498;28;20511;-60
2022/11/28 02:05:58;;;;;;;30.70;16.83;;;;;;;1.60;nan;99071.56;5021756;28;20041;-62
2022/11/28 02:08:24;;;;;;;30.27;17.07;;;;;;;1.61;nan;99066.53;5009822;28;20042;-61
2022/11/28 02:10:56;;;;;;;31.47;16.67;;;;;;;1.63;nan;99066.56;5009940;28;20560;-61
2022/11/28 02:13:28;;;;;;;30.93;16.80;;;;;;;1.59;nan;99058.06;5010857;28;20073;-60
2022/11/28 02:16:29;;;;;;;32.97;15.57;;;;;;;1.57;nan;99057.16;5010915;28;20045;-61
2022/11/28 02:19:33;;;;;;;28.10;15.73;;;;;;;1.57;nan;99056.34;5008386;28;20065;-60
2022/11/28 02:22:17;;;;;;;21.70;13.53;;;;;;;1.62;nan;99042.13;5009534;28;20443;-60
2022/11/28 02:25:20;;;;;;;29.73;15.87;;;;;;;1.59;nan;99037.84;5012494;28;20072;-62
2022/11/28 02:28:20;;;;;;;29.27;15.50;;;;;;;1.64;nan;99033.78;5010895;28;20033;-61
2022/11/28 02:31:24;;;;;;;28.00;15.43;;;;;;;1.70;nan;99030.50;5009865;28;20115;-62
2022/11/28 02:33:54;;;;;;;27.00;14.97;;;;;;;1.70;nan;99038.09;4929934;29;20481;-60
2022/11/28 02:36:43;;;;;;;30.63;16.50;;;;;;;1.76;nan;99039.09;4929530;29;20051;-59
2022/11/28 02:39:28;;;;;;;25.93;14.47;;;;;;;1.76;nan;99034.03;4924479;29;20486;-60
2022/11/28 02:42:03;;;;;;;27.00;15.67;;;;;;;1.74;nan;99029.78;4928606;29;20727;-59
2022/11/28 02:44:28;;;;;;;;;;;;;;;1.83;nan;99027.44;4929752;29;20059;-61
2022/11/28 02:47:04;;;;;;;27.33;14.60;;;;;;;1.77;nan;99010.47;4927271;29;20556;-60
2022/11/28 02:49:55;;;;;;;23.13;13.80;;;;;;;1.90;nan;99018.31;4929469;29;20078;-60
2022/11/28 02:52:28;;;;;;;28.40;15.10;;;;;;;1.91;nan;99014.97;4927110;29;20048;-61
2022/11/28 02:54:54;;;;;;;27.53;14.57;;;;;;;1.95;nan;99004.97;4928659;29;20807;-61
2022/11/28 02:57:20;;;;;;;26.93;15.73;;;;;;;2.00;nan;99010.09;4928966;29;20059;-60
2022/11/28 02:59:49;;;;;;;24.70;13.77;;;;;;;1.95;nan;99004.13;4908809;29;20051;-59
2022/11/28 03:02:24;;;;;;;25.90;16.37;;;;;;;1.89;nan;98996.38;4926856;29;20055;-62
2022/11/28 03:05:16;;;;;;;27.70;15.80;;;;;;;1.91;nan;98995.59;4928541;29;20079;-60
2022/11/28 03:08:07;;;;;;;22.93;13.57;;;;;;;1.94;nan;98995.66;4962831;28;20045;-60
2022/11/28 03:10:44;;;;;;;22.00;13.57;;;;;;;1.99;nan;98993.25;5002881;28;20042;-62
2022/11/28 03:13:25;;;;;;;24.10;13.07;;;;;;;1.88;nan;98992.16;5007689;28;20048;-60
2022/11/28 03:15:57;;;;;;;24.23;12.67;;;;;;;1.86;nan;98998.84;5009265;28;20052;-62
2022/11/28 03:18:30;;;;;;;25.93;14.20;;;;;;;1.91;nan;98994.75;5008904;28;20141;-61
2022/11/28 03:21:10;;;;;;;20.43;12.87;;;;;;;1.87;nan;98990.47;5008000;28;20493;-61
2022/11/28 03:23:42;;;;;;;19.90;11.73;;;;;;;1.81;nan;98984.44;5009024;28;20128;-60
2022/11/28 03:26:28;;;;;;;23.00;13.13;;;;;;;1.84;nan;98986.19;5023065;28;20042;-60
2022/11/28 03:28:56;;;;;;;19.15;12.35;;;;;;;1.80;nan;98984.41;5009512;28;20042;-60
2022/11/28 03:31:30;;;;;;;23.50;12.57;;;;;;;1.74;nan;98971.66;5010584;28;20934;-61
2022/11/28 03:33:59;;;;;;;21.57;12.47;;;;;;;1.68;nan;98974.91;5009163;28;20045;-60
2022/11/28 03:36:34;;;;;;;19.53;12.13;;;;;;;1.60;nan;98978.94;5010393;28;20034;-62
2022/11/28 03:39:10;;;;;;;20.13;11.40;;;;;;;1.68;nan;98985.00;5005291;28;20556;-60
2022/11/28 03:41:59;;;;;;;23.50;12.57;;;;;;;1.75;nan;98983.44;5010082;28;20527;-60
2022/11/28 03:44:29;;;;;;;22.10;13.73;;;;;;;1.64;nan;98972.28;5008201;28;20112;-61
2022/11/28 03:46:58;;;;;;;22.23;12.60;;;;;;;1.59;nan;98977.22;5010053;28;20081;-57
2022/11/28 03:49:30;;;;;;;21.37;13.47;;;;;;;1.49;nan;98955.09;5007541;28;20046;-60
2022/11/28 03:52:11;;;;;;;20.83;12.33;;;;;;;1.62;nan;98961.25;5009554;28;20053;-62
2022/11/28 03:54:49;;;;;;;20.33;12.77;;;;;;;1.60;nan;98963.78;5024203;28;20420;-62
2022/11/28 03:57:15;;;;;;;22.00;11.57;;;;;;;1.54;nan;98967.81;5025063;28;20053;-60
2022/11/28 03:59:45;;;;;;;20.17;11.33;;;;;;;1.62;nan;98963.78;5009383;28;20037;-62
2022/11/28 04:02:49;;;;;;;22.00;12.93;;;;;;;1.68;nan;98969.84;5008860;28;20048;-61
2022/11/28 04:05:18;;;;;;;20.20;11.73;;;;;;;1.74;nan;98964.06;5007903;28;20099;-63
2022/11/28 04:07:46;;;;;;;20.17;11.90;;;;;;;1.91;nan;98946.72;5009002;28;20120;-61
2022/11/28 04:10:26;;;;;;;20.57;11.07;;;;;;;2.40;nan;98954.44;5009515;28;20049;-61
2022/11/28 04:13:01;;;;;;;19.37;11.23;;;;;;;2.17;nan;98940.47;5006665;28;20064;-62
2022/11/28 04:16:18;;;;;;;17.30;10.32;;;;;;;2.17;nan;98943.00;5009487;28;20049;-62
2022/11/28 04:18:59;;;;;;;19.70;12.40;;;;;;;2.03;nan;98936.84;4929389;29;20047;-61
2022/11/28 04:21:50;;;;;;;21.77;11.40;;;;;;;1.90;nan;98929.84;4933748;28;20055;-62
2022/11/28 04:24:32;;;;;;;20.27;11.27;;;;;;;1.80;nan;98916.16;4933809;29;20082;-60
2022/11/28 04:27:00;;;;;;;19.73;11.63;;;;;;;1.79;nan;98935.53;4935396;29;20846;-60
2022/11/28 04:29:30;;;;;;;22.27;11.77;;;;;;;1.54;nan;98905.53;4933185;29;20499;-62
2022/11/28 04:31:58;;;;;;;19.47;11.60;;;;;;;1.61;nan;98927.56;4911143;29;20487;-60
2022/11/28 04:34:25;;;;;;;17.60;11.70;;;;;;;1.68;nan;98928.56;4926582;29;20047;-61
2022/11/28 04:36:53;;;;;;;16.90;11.27;;;;;;;1.48;nan;98905.41;4933732;29;20071;-59
2022/11/28 04:39:22;;;;;;;24.13;11.33;;;;;;;1.58;nan;98927.50;4933398;29;20051;-60
2022/11/28 04:41:52;;;;;;;17.73;11.20;;;;;;;1.59;nan;98915.72;4931717;29;20043;-62
2022/11/28 04:44:28;;;;;;;21.80;12.43;;;;;;;1.55;nan;98922.41;4934548;29;20106;-61
2022/11/28 04:46:55;;;;;;;17.83;11.23;;;;;;;1.45;nan;98901.94;4932637;29;20056;-62
2022/11/28 04:49:22;;;;;;;23.47;12.77;;;;;;;1.31;nan;98892.44;4933422;29;20161;-62
2022/11/28 04:52:42;;;;;;;34.70;16.17;;;;;;;1.43;nan;98913.69;4945283;28;20681;-61
2022/11/28 04:55:28;;;;;;;28.43;16.40;;;;;;;1.31;nan;98894.09;4947795;28;20478;-61
2022/11/28 04:58:17;;;;;;;16.80;11.57;;;;;;;1.29;nan;98904.16;4953280;28;20070;-61
2022/11/28 05:00:44;;;;;;;20.07;11.90;;;;;;;1.32;nan;98910.94;4952687;28;20051;-62
2022/11/28 05:03:10;;;;;;;22.00;12.27;;;;;;;1.12;nan;98880.19;4952608;28;20047;-62
2022/11/28 05:05:49;;;;;;;36.80;18.97;;;;;;;1.16;nan;98898.78;4933126;28;20134;-63
2022/11/28 05:08:16;;;;;;;24.37;15.03;;;;;;;1.01;nan;98879.13;4950310;28;20050;-62
2022/11/28 05:10:41;;;;;;;25.50;13.77;;;;;;;1.11;nan;98890.25;4952624;28;20121;-61
2022/11/28 05:13:08;;;;;;;38.43;21.97;;;;;;;1.04;nan;98891.81;4953059;28;20525;-60
2022/11/28 05:15:33;;;;;;;29.17;16.40;;;;;;;1.07;nan;98896.06;4951466;28;20085;-62
2022/11/28 05:17:59;;;;;;;33.43;18.60;;;;;;;0.93;nan;98876.41;4952256;28;20046;-59
2022/11/28 05:20:25;;;;;;;49.07;26.93;;;;;;;1.03;nan;98891.75;4934306;28;20059;-59
2022/11/28 05:22:51;;;;;;;38.20;20.57;;;;;;;1.00;nan;98890.03;4953533;28;20134;-60
2022/11/28 05:25:16;;;;;;;32.10;16.33;;;;;;;0.99;nan;98879.88;4963706;28;20080;-60
2022/11/28 05:27:42;;;;;;;25.30;13.23;;;;;;;1.08;nan;98893.56;5009891;28;20050;-62
2022/11/28 05:30:10;;;;;;;29.90;16.33;;;;;;;1.08;nan;98898.63;5003573;28;20049;-61
2022/11/28 05:32:35;;;;;;;18.70;11.37;;;;;;;1.07;nan;98891.00;5008644;28;20087;-59
2022/11/28 05:35:03;;;;;;;17.87;11.10;;;;;;;1.08;nan;98891.06;5011955;28;20042;-59
2022/11/28 05:37:28;;;;;;;20.00;11.80;;;;;;;1.16;nan;98893.75;5013143;28;20045;-60
2022/11/28 05:39:54;;;;;;;17.43;11.30;;;;;;;1.18;nan;98889.59;5010879;28;20426;-61
2022/11/28 05:42:20;;;;;;;19.17;11.53;;;;;;;1.19;nan;98886.25;5009886;28;20073;-58
2022/11/28 05:44:46;;;;;;;18.73;11.00;;;;;;;1.23;nan;98883.81;5010493;28;20656;-60
2022/11/28 05:47:14;;;;;;;18.73;10.97;;;;;;;1.22;nan;98888.84;5012075;28;20038;-59
2022/11/28 05:49:40;;;;;;;17.60;10.93;;;;;;;1.16;nan;98886.16;5005756;28;20146;-57
2022/11/28 05:52:06;;;;;;;20.23;11.70;;;;;;;1.10;nan;98878.47;5013868;28;20163;-59
2022/11/28 05:54:32;;;;;;;18.47;10.60;;;;;;;1.11;nan;98891.13;5012682;28;20046;-59
2022/11/28 05:56:58;;;;;;;17.70;9.90;;;;;;;0.93;nan;98867.16;5008870;28;20049;-57
2022/11/28 05:59:23;;;;;;;20.23;11.93;;;;;;;1.00;nan;98877.41;5009426;28;20464;-59
2022/11/28 06:01:49;;;;;;;20.10;12.77;;;;;;;0.98;nan;98888.31;5011309;28;20041;-58
2022/11/28 06:04:16;;;;;;;24.43;13.27;;;;;;;0.97;nan;98889.97;5003627;28;20434;-62
2022/11/28 06:06:41;;;;;;;20.77;12.67;;;;;;;1.07;nan;98883.44;5006934;28;20137;-59
2022/11/28 06:09:07;;;;;;;20.93;13.17;;;;;;;1.07;nan;98880.91;5010235;28;20064;-56
2022/11/28 06:11:33;;;;;;;24.97;14.27;;;;;;;1.02;nan;98869.88;5008058;28;20054;-61
2022/11/28 06:13:59;;;;;;;22.83;13.83;;;;;;;1.04;nan;98870.75;5009006;28;20042;-58
2022/11/28 06:16:27;;;;;;;22.87;13.60;;;;;;;0.91;nan;98859.53;5009803;28;20457;-59
2022/11/28 06:18:58;;;;;;;23.43;14.70;;;;;;;0.91;nan;98857.84;5011318;28;20044;-59
2022/11/28 06:21:24;;;;;;;19.70;12.03;;;;;;;0.98;nan;98868.94;5009309;28;20042;-59
2022/11/28 06:23:50;;;;;;;27.37;12.93;;;;;;;1.01;nan;98880.78;5008895;28;20042;-60
2022/11/28 06:26:18;;;;;;;23.07;13.87;;;;;;;0.85;nan;98851.81;5011674;28;20041;-59
2022/11/28 06:28:44;;;;;;;23.73;14.80;;;;;;;0.98;nan;98870.63;5007785;28;20704;-60
2022/11/28 06:31:20;;;;;;;25.07;12.47;;;;;;;0.89;nan;98851.91;5009120;28;20052;-61
2022/11/28 06:33:46;;;;;;;21.47;14.23;;;;;;;1.03;nan;98866.50;5008399;28;20041;-58
2022/11/28 06:36:13;;;;;;;21.87;11.77;;;;;;;0.93;nan;98854.53;5002603;28;20491;-58
2022/11/28 06:38:40;;;;;;;22.07;13.10;;;;;;;1.10;nan;98871.75;5003312;28;20037;-62
2022/11/28 06:41:08;;;;;;;23.00;13.27;;;;;;;1.05;nan;98855.66;5007774;28;20037;-59
2022/11/28 06:43:34;;;;;;;21.73;12.33;;;;;;;1.10;nan;98863.31;5009080;28;20408;-60
2022/11/28 06:46:00;;;;;;;23.10;12.60;;;;;;;1.15;nan;98851.63;5009618;28;20034;-58
2022/11/28 06:48:26;;;;;;;23.53;12.87;;;;;;;1.16;nan;98849.16;5003911;28;20425;-59
2022/11/28 06:50:52;;;;;;;26.03;14.73;;;;;;;1.17;nan;98842.44;5007381;28;20045;-62
2022/11/28 06:53:18;;;;;;;21.00;11.93;;;;;;;1.25;nan;98851.88;5003523;28;20474;-61
2022/11/28 06:55:44;;;;;;;24.53;12.87;;;;;;;1.34;nan;98844.50;5005650;28;20053;-60
2022/11/28 06:58:10;;;;;;;22.57;13.40;;;;;;;1.37;nan;98852.13;5006252;28;20081;-60
2022/11/28 07:00:37;;;;;;;24.07;13.87;;;;;;;1.42;nan;98858.94;5010700;28;20130;-61
2022/11/28 07:03:03;;;;;;;26.13;13.97;;;;;;;1.46;nan;98859.03;5011684;28;20088;-60
2022/11/28 07:05:29;;;;;;;21.57;13.27;;;;;;;1.46;nan;98858.19;5010299;28;20285;-57
2022/11/28 07:07:58;;;;;;;23.47;13.37;;;;;;;1.38;nan;98833.63;5007722;28;20137;-60
2022/11/28 07:10:25;;;;;;;26.97;15.23;;;;;;;1.51;nan;98851.56;5008528;28;20618;-59
2022/11/28 07:12:59;;;;;;;22.80;13.40;;;;;;;1.59;nan;98850.91;5009308;28;20095;-60
2022/11/28 07:15:25;;;;;;;18.10;12.17;;;;;;;1.81;nan;98845.44;5007988;28;20042;-59
2022/11/28 07:17:52;;;;;;;14.40;9.33;;;;;;;2.18;nan;98835.97;5005804;28;20064;-60
2022/11/28 07:20:18;;;;;;;15.13;9.40;;;;;;;2.33;nan;98838.78;5009584;28;20049;-60
2022/11/28 07:22:45;;;;;;;17.37;8.63;;;;;;;2.50;nan;98841.59;5010375;28;20365;-58
2022/11/28 07:25:11;;;;;;;13.63;9.00;;;;;;;2.60;nan;98834.16;4977338;28;20478;-60
2022/11/28 07:27:38;;;;;;;17.73;8.90;;;;;;;2.65;nan;98817.38;5003501;28;20030;-59
2022/11/28 07:30:04;;;;;;;14.23;9.63;;;;;;;2.76;nan;98812.44;5008584;28;20050;-59
2022/11/28 07:32:29;;;;;;;14.60;9.10;;;;;;;2.98;nan;98826.28;5002744;28;20130;-63
2022/11/28 07:34:55;;;;;;;13.53;8.23;;;;;;;3.08;nan;98810.38;5000513;28;20634;-58
2022/11/28 07:37:20;;;;;;;14.50;8.53;;;;;;;3.11;nan;98811.28;5008673;28;20046;-60
2022/11/28 07:39:46;;;;;;;11.20;7.33;;;;;;;3.27;nan;98814.84;5009040;28;20631;-59
2022/11/28 07:42:12;;;;;;;13.20;7.87;;;;;;;3.26;nan;98792.03;5007805;28;20041;-60
2022/11/28 07:44:37;;;;;;;13.40;8.73;;;;;;;3.44;nan;98807.44;5007869;28;20108;-60
2022/11/28 07:47:03;;;;;;;14.10;8.63;;;;;;;3.63;nan;98802.63;5001861;28;20072;-61
2022/11/28 07:49:29;;;;;;;13.70;7.33;;;;;;;3.64;nan;98784.06;5006358;28;20073;-61
2022/11/28 07:51:55;;;;;;;11.73;8.13;;;;;;;3.91;nan;98803.75;5008690;28;20111;-64
2022/11/28 07:54:21;;;;;;;11.67;7.57;;;;;;;3.79;nan;98785.88;5002923;28;20301;-60
2022/11/28 07:56:46;;;;;;;9.70;6.57;;;;;;;4.10;nan;98794.66;5002587;28;20601;-65
2022/11/28 07:59:12;;;;;;;11.87;7.30;;;;;;;4.14;nan;98782.00;5008918;28;20129;-60
2022/11/28 08:01:38;;;;;;;10.10;7.13;;;;;;;4.26;nan;98785.47;5005318;28;20050;-60
2022/11/28 08:04:06;;;;;;;10.20;6.70;;;;;;;4.38;nan;98788.97;5009395;28;20064;-61
2022/11/28 08:06:35;;;;;;;9.93;7.20;;;;;;;4.45;nan;98767.91;5006051;28;20025;-61
2022/11/28 08:09:01;;;;;;;8.90;6.40;;;;;;;4.71;nan;98778.19;5012624;28;20681;-60
2022/11/28 08:11:29;;;;;;;9.87;6.53;;;;;;;4.76;nan;98773.16;5019247;28;20046;-63
2022/11/28 08:13:56;;;;;;;12.90;6.20;;;;;;;4.78;nan;98752.03;5007341;28;20556;-61
2022/11/28 08:16:23;;;;;;;9.07;6.50;;;;;;;4.98;nan;98749.59;5023055;28;20057;-61
2022/11/28 08:18:50;;;;;;;7.60;5.47;;;;;;;5.07;nan;98770.81;5006141;28;20098;-63
2022/11/28 08:21:19;;;;;;;9.40;6.13;;;;;;;5.22;nan;98764.94;5008833;28;20161;-62
2022/11/28 08:23:45;;;;;;;9.43;5.90;;;;;;;5.35;nan;98770.91;5004314;28;20117;-63
2022/11/28 08:26:13;;;;;;;7.17;5.37;;;;;;;5.56;nan;98772.72;5009252;28;20384;-61
2022/11/28 08:28:39;;;;;;;12.03;6.33;;;;;;;5.60;nan;98774.41;5012154;28;20038;-61
2022/11/28 08:31:09;;;;;;;6.23;5.20;;;;;;;5.50;nan;98756.59;5008012;28;20116;-63
2022/11/28 08:33:35;;;;;;;7.30;4.47;;;;;;;5.68;nan;98772.75;5006419;28;20525;-61
2022/11/28 08:36:03;;;;;;;7.53;5.10;;;;;;;5.73;nan;98756.63;5012193;28;20042;-63
2022/11/28 08:38:29;;;;;;;7.93;5.07;;;;;;;5.83;nan;98782.94;5013221;28;20039;-65
2022/11/28 08:41:12;;;;;;;8.77;4.70;;;;;;;5.95;nan;98771.13;5023637;28;20504;-62
2022/11/28 08:43:38;;;;;;;8.10;5.20;;;;;;;5.87;nan;98762.63;5006194;28;20049;-63
2022/11/28 08:46:07;;;;;;;7.40;4.40;;;;;;;6.05;nan;98748.25;5010239;28;20083;-64
2022/11/28 08:48:34;;;;;;;7.90;4.80;;;;;;;6.11;nan;98766.91;5008525;28;20026;-63
2022/11/28 08:51:00;;;;;;;6.33;4.63;;;;;;;6.01;nan;98769.44;5006986;28;20155;-62
2022/11/28 08:53:26;;;;;;;6.27;4.57;;;;;;;6.26;nan;98777.09;5005395;28;20053;-64
2022/11/28 08:55:52;;;;;;;5.00;4.33;;;;;;;6.24;nan;98766.06;5009661;28;20064;-62
2022/11/28 08:58:17;;;;;;;7.23;4.37;;;;;;;6.38;nan;98766.91;5012369;28;20512;-62
2022/11/28 09:00:43;;;;;;;5.83;4.50;;;;;;;6.65;nan;98768.59;5010857;28;20572;-62
2022/11/28 09:03:17;;;;;;;6.47;3.80;;;;;;;7.59;nan;98752.16;5003246;28;20046;-62
2022/11/28 09:05:45;;;;;;;7.00;4.90;;;;;;;7.75;nan;98734.19;5008850;28;20115;-62
2022/11/28 09:08:11;;;;;;;4.35;3.88;;;;;;;8.18;nan;98747.53;5010180;28;20034;-64
2022/11/28 09:10:39;;;;;;;5.70;4.30;;;;;;;7.98;nan;98758.69;5010763;28;20045;-63
2022/11/28 09:13:05;;;;;;;6.17;5.20;;;;;;;7.77;nan;98736.72;5007044;28;20129;-63
2022/11/28 09:15:31;;;;;;;5.40;4.53;;;;;;;8.09;nan;98746.72;5007488;28;20046;-63
2022/11/28 09:17:57;;;;;;;4.55;4.03;;;;;;;8.16;nan;98756.03;5005981;28;20404;-63
2022/11/28 09:20:23;;;;;;;5.00;3.90;;;;;;;8.60;nan;98755.72;5005945;28;20088;-63
2022/11/28 09:22:49;;;;;;;7.75;5.25;;;;;;;8.48;nan;98727.72;5005323;28;20527;-64
2022/11/28 09:25:15;;;;;;;6.10;4.10;;;;;;;8.52;nan;98750.66;5010243;28;20066;-63
2022/11/28 09:27:41;;;;;;;5.07;4.07;;;;;;;8.31;nan;98730.41;5010962;28;20124;-64
2022/11/28 09:30:08;;;;;;;6.05;4.63;;;;;;;8.91;nan;98749.41;5010241;28;20038;-63
2022/11/28 09:32:34;;;;;;;5.82;4.18;;;;;;;8.85;nan;98746.94;5009315;28;20045;-63
2022/11/28 09:35:00;;;;;;;5.82;4.25;;;;;;;9.08;nan;98742.41;5004450;28;20537;-63
2022/11/28 09:37:28;;;;;;;8.45;4.97;;;;;;;8.46;nan;98743.03;5009764;28;20046;-63
2022/11/28 09:39:54;;;;;;;7.53;4.70;;;;;;;8.40;nan;98742.28;5011339;28;20132;-64
2022/11/28 09:42:36;;;;;;;5.13;4.50;;;;;;;8.73;nan;98738.53;5009365;28;20588;-63
2022/11/28 09:45:09;;;;;;;4.32;3.92;;;;;;;8.82;nan;98718.00;5012300;28;20048;-64
2022/11/28 09:47:38;;;;;;;6.35;4.80;;;;;;;8.52;nan;98726.81;5010605;28;20132;-64
2022/11/28 09:50:21;;;;;;;4.80;4.30;;;;;;;8.91;nan;98723.84;4994605;28;20095;-64
2022/11/28 09:53:17;;;;;;;8.05;3.67;;;;;;;8.81;nan;98722.28;5025332;28;20041;-63
2022/11/28 09:56:09;;;;;;;4.30;3.22;;;;;;;9.25;nan;98723.47;5004093;28;20401;-63
2022/11/28 09:58:42;;;;;;;4.03;3.42;;;;;;;9.45;nan;98714.69;5006233;28;20497;-63
2022/11/28 10:01:21;;;;;;;3.88;3.58;;;;;;;9.46;nan;98718.91;5010031;28;20045;-65
2022/11/28 10:04:01;;;;;;;6.05;4.40;;;;;;;8.59;nan;98702.91;5005617;28;20128;-64
2022/11/28 10:06:54;;;;;;;6.18;4.18;;;;;;;8.65;nan;98723.28;5009876;28;20589;-69
2022/11/28 10:09:44;;;;;;;5.10;3.67;;;;;;;8.39;nan;98710.75;5003450;28;20045;-63
2022/11/28 10:12:18;;;;;;;5.30;4.00;;;;;;;8.42;nan;98713.28;5005335;28;20125;-62
2022/11/28 10:15:06;;;;;;;5.32;3.45;;;;;;;8.34;nan;98699.72;5014886;28;20076;-61
2022/11/28 10:17:46;;;;;;;5.72;4.07;;;;;;;8.15;nan;98706.66;5028741;28;20124;-64
2022/11/28 10:20:15;;;;;;;4.68;3.70;;;;;;;7.98;nan;98680.41;5006474;28;20053;-60
2022/11/28 10:22:54;;;;;;;4.55;3.78;;;;;;;8.14;nan;98699.88;5005105;28;20046;-61
2022/11/28 10:25:30;;;;;;;6.40;4.43;;;;;;;8.14;nan;98694.78;5009674;28;20045;-61
2022/11/28 10:27:56;;;;;;;6.50;4.38;;;;;;;8.13;nan;98680.31;5010941;28;20059;-61
2022/11/28 10:30:32;;;;;;;5.00;4.20;;;;;;;8.23;nan;98687.00;5009391;28;20034;-61
2022/11/28 10:33:10;;;;;;;6.68;4.03;;;;;;;8.06;nan;98673.53;5010998;28;20132;-62
2022/11/28 10:35:47;;;;;;;6.45;4.07;;;;;;;8.13;nan;98682.00;5009504;28;20391;-61
2022/11/28 10:38:15;;;;;;;6.47;4.45;;;;;;;8.16;nan;98670.06;5022765;28;20060;-62
2022/11/28 10:40:49;;;;;;;4.07;3.55;;;;;;;8.04;nan;98674.41;5006965;28;20136;-63
2022/11/28 10:43:37;;;;;;;5.65;4.22;;;;;;;7.93;nan;98666.00;5009007;28;20057;-62
2022/11/28 10:46:38;;;;;;;5.35;4.25;;;;;;;7.95;nan;98660.03;5008914;28;20061;-62
2022/11/28 10:49:22;;;;;;;8.32;4.10;;;;;;;7.65;nan;98647.50;5025890;28;20072;-62
2022/11/28 10:52:14;;;;;;;7.10;4.38;;;;;;;7.86;nan;98665.19;5011306;28;20037;-62
2022/11/28 10:55:26;;;;;;;7.22;4.22;;;;;;;8.14;nan;98650.53;5021641;28;20232;-62
2022/11/28 10:58:10;;;;;;;6.88;4.38;;;;;;;8.08;nan;98656.50;5010462;28;20536;-62
2022/11/28 11:00:37;;;;;;;6.45;4.78;;;;;;;7.80;nan;98655.06;5010163;28;20080;-62
2022/11/28 11:03:04;;;;;;;5.43;4.35;;;;;;;7.85;nan;98637.97;5011007;28;20087;-63
2022/11/28 11:05:32;;;;;;;6.25;5.22;;;;;;;8.06;nan;98644.63;5009228;28;20037;-63
2022/11/28 11:08:20;;;;;;;6.82;5.15;;;;;;;8.12;nan;98660.72;5009976;28;20034;-63
2022/11/28 11:10:48;;;;;;;5.70;5.00;;;;;;;7.86;nan;98624.38;5009905;28;20060;-62
2022/11/28 11:13:22;;;;;;;5.82;4.15;;;;;;;7.83;nan;98647.38;5010235;28;20057;-62
2022/11/28 11:15:56;;;;;;;5.20;4.07;;;;;;;7.68;nan;98637.28;5011052;28;20420;-62
2022/11/28 11:18:26;;;;;;;5.82;4.80;;;;;;;7.62;nan;98619.47;5009429;28;20092;-61
2022/11/28 11:21:08;;;;;;;6.90;4.97;;;;;;;7.64;nan;98630.47;5010475;28;20073;-62
2022/11/28 11:23:33;;;;;;;6.68;4.85;;;;;;;7.56;nan;98643.31;5001639;28;20564;-62
2022/11/28 11:25:59;;;;;;;5.47;4.53;;;;;;;7.64;nan;98627.94;5004873;28;20065;-62
2022/11/28 11:28:44;;;;;;;7.30;5.68;;;;;;;7.88;nan;98632.88;5011241;28;20057;-63
2022/11/28 11:31:30;;;;;;;7.18;4.32;;;;;;;7.89;nan;98629.47;5010117;28;20045;-63
2022/11/28 11:34:05;;;;;;;7.65;5.20;;;;;;;7.89;nan;98642.22;5009768;28;20034;-64
2022/11/28 11:36:35;;;;;;;7.78;4.93;;;;;;;7.82;nan;98612.50;5008715;28;20084;-64
2022/11/28 11:39:11;;;;;;;5.43;4.47;;;;;;;8.15;nan;98641.97;5008358;28;20041;-62
2022/11/28 11:41:46;;;;;;;;;;;;;;;8.25;nan;98636.78;5006552;28;20126;-62
2022/11/28 11:44:14;;;;;;;6.43;4.80;;;;;;;7.98;nan;98625.97;5008269;28;19917;-63
2022/11/28 11:46:54;;;;;;;8.13;5.97;;;;;;;8.01;nan;98625.94;5007269;28;20053;-63
2022/11/28 11:49:35;;;;;;;10.52;7.47;;;;;;;7.86;nan;98638.81;5007527;28;20117;-60
2022/11/28 11:52:22;;;;;;;9.68;6.82;;;;;;;7.83;nan;98626.94;5002214;28;20037;-61
2022/11/28 11:54:51;;;;;;;10.88;7.35;;;;;;;7.87;nan;98641.38;5006408;28;20044;-61
2022/11/28 11:57:17;;;;;;;14.23;7.40;;;;;;;7.66;nan;98644.09;5008235;28;20496;-61
2022/11/28 11:59:49;;;;;;;11.02;7.50;;;;;;;7.61;nan;98636.47;5008868;28;20053;-62
2022/11/28 12:02:24;;;;;;;10.27;6.72;;;;;;;7.45;nan;98634.88;5002841;28;20106;-62
2022/11/28 12:04:55;;;;;;;;;;;;;;;7.51;nan;98636.56;5014345;28;20042;-61
2022/11/28 12:07:30;;;;;;;10.93;7.55;;;;;;;7.36;nan;98624.75;5008715;28;19921;-61
2022/11/28 12:09:57;;;;;;;10.00;7.10;;;;;;;7.37;nan;98636.66;5006540;28;20485;-62